createdAt,value
2022-12-26T00:01:20.422Z,-23466.91
2022-12-26T00:03:23.297Z,-23468.00
2022-12-26T00:05:27.355Z,-23468.16
2022-12-26T00:07:29.952Z,-23473.72
2022-12-26T00:09:33.471Z,-23472.44
2022-12-26T00:11:36.720Z,-23469.28
2022-12-26T00:13:41.705Z,-23470.22
2022-12-26T00:15:44.681Z,-23468.16
2022-12-26T00:17:47.264Z,-23469.75
2022-12-26T00:19:49.923Z,-23466.91
2022-12-26T00:21:53.939Z,-23468.50
2022-12-26T00:23:58.044Z,-23466.25
2022-12-26T00:26:04.179Z,-23470.38
2022-12-26T00:28:06.821Z,-23468.81
2022-12-26T00:30:10.994Z,-23468.81
2022-12-26T00:32:13.611Z,-23463.41
2022-12-26T00:34:16.561Z,-23465.31
2022-12-26T00:36:21.631Z,-23465.00
2022-12-26T00:38:25.766Z,-23465.00
2022-12-26T00:40:28.416Z,-23468.50
2022-12-26T00:42:31.007Z,-23467.38
2022-12-26T00:44:33.621Z,-23468.63
2022-12-26T00:46:36.461Z,-23467.84
2022-12-26T00:48:39.095Z,-23469.59
2022-12-26T00:50:41.871Z,-23468.81
2022-12-26T00:52:44.491Z,-23469.44
2022-12-26T00:54:49.089Z,-23471.03
2022-12-26T00:56:51.787Z,-23474.66
2022-12-26T00:58:54.451Z,-23471.81
2022-12-26T01:00:57.440Z,-23468.81
2022-12-26T01:03:00.235Z,-23470.06
2022-12-26T01:05:03.057Z,-23466.25
2022-12-26T01:07:05.740Z,-23471.03
2022-12-26T01:09:08.455Z,-23473.56
2022-12-26T01:11:14.335Z,-23469.75
2022-12-26T01:13:17.031Z,-23471.03
2022-12-26T01:15:20.589Z,-23468.97
2022-12-26T01:17:23.355Z,-23471.97
2022-12-26T01:19:26.074Z,-23476.41
2022-12-26T01:21:28.732Z,-23475.16
2022-12-26T01:23:31.439Z,-23475.63
2022-12-26T01:25:34.077Z,-23473.56
2022-12-26T01:27:38.125Z,-23477.03
2022-12-26T01:29:40.778Z,-23477.03
2022-12-26T01:31:43.719Z,-23479.75
2022-12-26T01:33:46.361Z,-23474.81
2022-12-26T01:35:53.853Z,-23475.16
2022-12-26T01:37:57.136Z,-23473.25
2022-12-26T01:39:59.756Z,-23473.25
2022-12-26T01:42:02.361Z,-23473.88
2022-12-26T01:44:27.836Z,-23476.25
2022-12-26T01:46:34.686Z,-23476.41
2022-12-26T01:48:37.383Z,-23478.47
2022-12-26T01:50:45.617Z,-23476.72
2022-12-26T01:52:49.747Z,-23479.59
2022-12-26T01:54:55.518Z,-23482.75
2022-12-26T01:56:59.342Z,-23481.16
2022-12-26T01:59:07.186Z,-23483.38
2022-12-26T02:01:12.185Z,-23484.03
2022-12-26T02:03:32.327Z,-23479.91
2022-12-26T02:05:34.904Z,-23480.84
2022-12-26T02:07:40.294Z,-23480.06
2022-12-26T02:09:43.495Z,-23479.91
2022-12-26T02:12:34.041Z,-23480.84
2022-12-26T02:14:13.400Z,-23481.16
2022-12-26T02:16:20.305Z,-23480.53
2022-12-26T02:18:22.995Z,-23480.22
2022-12-26T02:20:28.746Z,-23478.78
2022-12-26T02:23:20.860Z,-23477.84
2022-12-26T02:25:43.360Z,-23478.00
2022-12-26T02:28:25.023Z,-23477.84
2022-12-26T02:30:38.400Z,-23481.47
2022-12-26T02:33:00.283Z,-23477.84
2022-12-26T02:35:12.003Z,-23478.00
2022-12-26T02:37:27.835Z,-23477.38
2022-12-26T02:39:47.618Z,-23477.53
2022-12-26T02:42:02.459Z,-23477.69
2022-12-26T02:44:26.213Z,-23477.19
2022-12-26T02:46:54.020Z,-23475.78
2022-12-26T02:49:06.406Z,-23475.94
2022-12-26T02:51:53.379Z,-23476.88
2022-12-26T02:54:24.829Z,-23477.03
2022-12-26T02:56:49.186Z,-23481.81
2022-12-26T02:59:17.592Z,-23478.78
2022-12-26T03:01:45.568Z,-23484.19
2022-12-26T03:04:08.628Z,-23482.44
2022-12-26T03:06:34.147Z,-23481.16
2022-12-26T03:09:08.726Z,-23484.34
2022-12-26T03:11:29.162Z,-23483.38
2022-12-26T03:13:37.163Z,-23483.38
2022-12-26T03:16:03.482Z,-23481.81
2022-12-26T03:18:08.696Z,-23483.38
2022-12-26T03:20:16.378Z,-23482.91
2022-12-26T03:22:31.450Z,-23483.38
2022-12-26T03:24:59.904Z,-23482.13
2022-12-26T03:27:01.834Z,-23482.59
2022-12-26T03:29:19.317Z,-23482.91
2022-12-26T03:31:22.145Z,-23484.19
2022-12-26T03:33:44.594Z,-23488.63
2022-12-26T03:35:48.635Z,-23488.16
2022-12-26T03:37:56.293Z,-23487.19
2022-12-26T03:40:27.243Z,-23485.91
2022-12-26T03:42:55.044Z,-23486.88
2022-12-26T03:45:21.930Z,-23485.91
2022-12-26T03:47:48.093Z,-23486.88
2022-12-26T03:50:14.924Z,-23489.09
2022-12-26T03:52:43.223Z,-23489.09
2022-12-26T03:55:12.470Z,-23486.88
2022-12-26T03:57:37.552Z,-23486.56
2022-12-26T04:00:12.500Z,-23486.25
2022-12-26T04:02:35.405Z,-23488.00
2022-12-26T04:05:08.472Z,-23486.56
2022-12-26T04:07:28.987Z,-23485.91
2022-12-26T04:09:55.227Z,-23483.38
2022-12-26T04:12:18.041Z,-23482.75
2022-12-26T04:14:52.684Z,-23486.88
2022-12-26T04:17:18.119Z,-23485.13
2022-12-26T04:19:37.412Z,-23487.50
2022-12-26T04:22:03.563Z,-23487.34
2022-12-26T04:24:30.569Z,-23486.72
2022-12-26T04:26:57.888Z,-23487.84
2022-12-26T04:29:18.207Z,-23486.56
2022-12-26T04:31:46.329Z,-23484.66
2022-12-26T04:34:11.088Z,-23484.81
2022-12-26T04:36:36.881Z,-23488.78
2022-12-26T04:39:01.813Z,-23488.78
2022-12-26T04:41:23.816Z,-23492.25
2022-12-26T04:43:51.351Z,-23492.59
2022-12-26T04:45:55.925Z,-23493.22
2022-12-26T04:48:16.038Z,-23493.53
2022-12-26T04:50:18.865Z,-23494.16
2022-12-26T04:52:21.511Z,-23496.72
2022-12-26T04:54:24.214Z,-23496.72
2022-12-26T04:56:26.806Z,-23496.38
2022-12-26T04:58:30.790Z,-23497.97
2022-12-26T05:00:33.441Z,-23497.97
2022-12-26T05:02:53.814Z,-23498.94
2022-12-26T05:05:28.428Z,-23500.50
2022-12-26T05:08:05.532Z,-23499.88
2022-12-26T05:10:14.716Z,-23501.47
2022-12-26T05:12:17.414Z,-23499.25
2022-12-26T05:14:21.431Z,-23497.97
2022-12-26T05:16:42.636Z,-23499.56
2022-12-26T05:19:03.015Z,-23497.97
2022-12-26T05:21:23.426Z,-23499.56
2022-12-26T05:23:46.172Z,-23499.25
2022-12-26T05:26:07.488Z,-23499.56
2022-12-26T05:28:29.295Z,-23499.25
2022-12-26T05:30:33.295Z,-23498.28
2022-12-26T05:32:53.756Z,-23497.81
2022-12-26T05:34:56.420Z,-23500.81
2022-12-26T05:37:00.424Z,-23499.88
2022-12-26T05:39:03.212Z,-23499.88
2022-12-26T05:41:06.217Z,-23499.72
2022-12-26T05:43:08.828Z,-23498.13
2022-12-26T05:45:11.854Z,-23497.66
2022-12-26T05:47:15.770Z,-23498.13
2022-12-26T05:49:18.380Z,-23497.34
2022-12-26T05:51:20.985Z,-23495.75
2022-12-26T05:53:23.580Z,-23495.91
2022-12-26T05:55:26.889Z,-23497.03
2022-12-26T05:57:29.591Z,-23497.34
2022-12-26T05:59:32.175Z,-23497.97
2022-12-26T06:01:34.937Z,-23497.03
2022-12-26T06:03:39.645Z,-23497.97
2022-12-26T06:05:42.377Z,-23502.41
2022-12-26T06:07:45.006Z,-23503.34
2022-12-26T06:09:47.633Z,-23501.78
2022-12-26T06:11:50.691Z,-23501.47
2022-12-26T06:13:53.699Z,-23502.72
2022-12-26T06:15:56.397Z,-23502.09
2022-12-26T06:17:59.064Z,-23504.16
2022-12-26T06:20:03.815Z,-23502.09
2022-12-26T06:22:06.547Z,-23502.41
2022-12-26T06:24:09.355Z,-23503.84
2022-12-26T06:26:12.849Z,-23501.47
2022-12-26T06:28:15.550Z,-23502.41
2022-12-26T06:30:18.305Z,-23502.88
2022-12-26T06:32:21.015Z,-23504.16
2022-12-26T06:34:23.736Z,-23503.69
2022-12-26T06:36:29.423Z,-23502.88
2022-12-26T06:38:32.083Z,-23504.94
2022-12-26T06:40:34.700Z,-23508.59
2022-12-26T06:42:37.375Z,-23508.75
2022-12-26T06:44:40.004Z,-23509.69
2022-12-26T06:46:42.606Z,-23508.44
2022-12-26T06:48:45.582Z,-23507.47
2022-12-26T06:50:48.276Z,-23509.69
2022-12-26T06:52:52.288Z,-23509.69
2022-12-26T06:54:54.904Z,-23510.97
2022-12-26T06:56:57.553Z,-23508.75
2022-12-26T06:59:01.920Z,-23508.59
2022-12-26T07:01:06.166Z,-23508.09
2022-12-26T07:03:08.959Z,-23508.75
2022-12-26T07:05:11.659Z,-23509.69
2022-12-26T07:07:14.283Z,-23511.28
2022-12-26T07:09:20.161Z,-23511.28
2022-12-26T07:11:25.137Z,-23510.66
2022-12-26T07:13:27.763Z,-23509.84
2022-12-26T07:15:30.327Z,-23510.16
2022-12-26T07:17:32.919Z,-23512.38
2022-12-26T07:19:35.598Z,-23512.22
2022-12-26T07:21:40.998Z,-23510.31
2022-12-26T07:23:44.095Z,-23507.78
2022-12-26T07:25:49.569Z,-23507.94
2022-12-26T07:27:54.330Z,-23509.22
2022-12-26T07:29:57.039Z,-23507.47
2022-12-26T07:31:59.739Z,-23508.91
2022-12-26T07:34:02.642Z,-23507.47
2022-12-26T07:36:07.256Z,-23513.50
2022-12-26T07:38:09.926Z,-23509.53
2022-12-26T07:40:13.619Z,-23506.06
2022-12-26T07:42:17.530Z,-23512.22
2022-12-26T07:44:20.133Z,-23505.41
2022-12-26T07:46:23.083Z,-23503.03
2022-12-26T07:48:25.865Z,-23503.69
2022-12-26T07:50:29.585Z,-23504.00
2022-12-26T07:52:32.349Z,-23504.63
2022-12-26T07:54:35.094Z,-23508.75
2022-12-26T07:56:37.952Z,-23509.38
2022-12-26T07:58:42.106Z,-23502.41
2022-12-26T08:00:44.765Z,-23501.63
2022-12-26T08:02:49.401Z,-23499.25
2022-12-26T08:04:52.283Z,-23500.03
2022-12-26T08:06:54.862Z,-23505.25
2022-12-26T08:08:57.512Z,-23499.06
2022-12-26T08:11:01.316Z,-23494.50
2022-12-26T08:13:03.966Z,-23496.06
2022-12-26T08:15:10.022Z,-23499.06
2022-12-26T08:17:12.777Z,-23493.22
2022-12-26T08:19:15.442Z,-23486.88
2022-12-26T08:21:18.267Z,-23483.72
2022-12-26T08:23:20.948Z,-23485.91
2022-12-26T08:25:23.582Z,-23476.25
2022-12-26T08:27:26.249Z,-23477.38
2022-12-26T08:29:29.084Z,-23479.59
2022-12-26T08:31:33.135Z,-23482.28
2022-12-26T08:33:36.463Z,-23472.91
2022-12-26T08:35:40.374Z,-23468.97
2022-12-26T08:37:44.150Z,-23468.81
2022-12-26T08:39:46.784Z,-23472.28
2022-12-26T08:41:49.383Z,-23473.56
2022-12-26T08:44:25.661Z,-23470.69
2022-12-26T08:46:16.051Z,-23470.06
2022-12-26T08:48:20.135Z,-23470.06
2022-12-26T08:50:22.868Z,-23470.88
2022-12-26T08:52:25.515Z,-23475.78
2022-12-26T08:54:28.173Z,-23471.66
2022-12-26T08:56:30.930Z,-23471.66
2022-12-26T08:58:35.251Z,-23472.44
2022-12-26T09:00:38.008Z,-23468.50
2022-12-26T09:02:40.722Z,-23469.13
2022-12-26T09:04:45.375Z,-23463.72
2022-12-26T09:06:48.064Z,-23467.22
2022-12-26T09:08:51.022Z,-23463.72
2022-12-26T09:10:53.635Z,-23463.09
2022-12-26T09:12:56.238Z,-23464.38
2022-12-26T09:14:59.037Z,-23464.69
2022-12-26T09:17:01.718Z,-23465.47
2022-12-26T09:19:06.254Z,-23465.00
2022-12-26T09:21:12.399Z,-23468.81
2022-12-26T09:23:15.468Z,-23468.00
2022-12-26T09:25:18.329Z,-23473.88
2022-12-26T09:27:21.343Z,-23473.25
2022-12-26T09:29:23.982Z,-23475.63
2022-12-26T09:31:29.301Z,-23473.88
2022-12-26T09:33:33.295Z,-23473.88
2022-12-26T09:35:35.987Z,-23475.47
2022-12-26T09:37:39.974Z,-23474.19
2022-12-26T09:39:42.603Z,-23475.94
2022-12-26T09:42:02.712Z,-23478.00
2022-12-26T09:44:10.899Z,-23478.00
2022-12-26T09:46:19.798Z,-23478.00
2022-12-26T09:48:29.291Z,-23476.09
2022-12-26T09:50:40.997Z,-23475.31
2022-12-26T09:52:51.480Z,-23475.16
2022-12-26T09:54:57.404Z,-23477.03
2022-12-26T09:57:04.013Z,-23474.50
2022-12-26T09:59:14.838Z,-23474.03
2022-12-26T10:01:20.377Z,-23474.66
2022-12-26T10:03:24.684Z,-23474.81
2022-12-26T10:05:45.673Z,-23472.28
2022-12-26T10:07:57.351Z,-23473.88
2022-12-26T10:10:09.074Z,-23471.66
2022-12-26T10:12:29.852Z,-23464.19
2022-12-26T10:14:42.320Z,-23465.63
2022-12-26T10:16:51.874Z,-23469.75
2022-12-26T10:19:01.593Z,-23473.56
2022-12-26T10:21:29.250Z,-23472.13
2022-12-26T10:23:34.922Z,-23469.91
2022-12-26T10:25:43.930Z,-23470.88
2022-12-26T10:27:50.866Z,-23477.38
2022-12-26T10:29:58.439Z,-23478.00
2022-12-26T10:32:04.250Z,-23476.72
2022-12-26T10:34:11.951Z,-23473.56
2022-12-26T10:36:22.204Z,-23474.97
2022-12-26T10:38:32.208Z,-23472.91
2022-12-26T10:40:40.411Z,-23468.31
2022-12-26T10:42:45.459Z,-23469.28
2022-12-26T10:44:48.144Z,-23468.50
2022-12-26T10:47:23.361Z,-21868.31
2022-12-26T10:49:27.933Z,-15102.97
2022-12-26T10:51:31.253Z,-16068.66
2022-12-26T10:53:44.002Z,-12522.63
2022-12-26T10:55:48.056Z,-8974.34
2022-12-26T10:57:54.067Z,-574.31
2022-12-26T10:59:57.329Z,5251.16
2022-12-26T11:02:13.929Z,5575.47
2022-12-26T11:04:31.440Z,4605.31
2022-12-26T11:06:43.867Z,6872.03
2022-12-26T11:08:50.174Z,5252.31
2022-12-26T11:11:05.879Z,2986.84
2022-12-26T11:13:19.184Z,1691.41
2022-12-26T11:15:27.554Z,-7684.09
2022-12-26T11:17:32.452Z,-11556.47
2022-12-26T11:19:37.451Z,-7685.00
2022-12-26T11:21:40.146Z,-21198.69
2022-12-26T11:23:45.499Z,-23469.44
2022-12-26T11:25:54.756Z,-23471.97
2022-12-26T11:28:00.382Z,-23472.91
2022-12-26T11:30:20.337Z,-23470.38
2022-12-26T11:32:31.208Z,-23472.13
2022-12-26T11:34:36.356Z,-23471.03
2022-12-26T11:36:46.212Z,-23471.34
2022-12-26T11:38:54.065Z,-23471.50
2022-12-26T11:41:10.711Z,-23471.81
2022-12-26T11:43:18.647Z,-23472.59
2022-12-26T11:45:29.360Z,-23471.19
2022-12-26T11:47:34.376Z,-23472.75
2022-12-26T11:49:42.139Z,-23470.69
2022-12-26T11:51:50.635Z,-23472.91
2022-12-26T11:54:17.302Z,-23471.34
2022-12-26T11:56:27.744Z,-23470.38
2022-12-26T11:58:33.511Z,-23469.75
2022-12-26T12:00:39.109Z,-23469.28
2022-12-26T12:02:42.905Z,-23471.66
2022-12-26T12:04:46.889Z,-23472.91
2022-12-26T12:07:00.871Z,-23474.19
2022-12-26T12:09:12.923Z,-23473.56
2022-12-26T12:11:26.486Z,-23474.03
2022-12-26T12:13:46.675Z,-23475.63
2022-12-26T12:15:58.154Z,-23478.00
2022-12-26T12:18:08.116Z,-23476.41
2022-12-26T12:20:30.392Z,-23476.72
2022-12-26T12:22:45.982Z,-23476.72
2022-12-26T12:25:22.393Z,-23476.25
2022-12-26T12:27:29.925Z,-23475.47
2022-12-26T12:29:49.022Z,-23477.19
2022-12-26T12:32:08.472Z,-23476.72
2022-12-26T12:34:24.027Z,-23478.31
2022-12-26T12:36:33.787Z,-23477.84
2022-12-26T12:38:54.724Z,-23478.94
2022-12-26T12:41:23.459Z,-23478.31
2022-12-26T12:43:32.534Z,-23477.38
2022-12-26T12:45:41.658Z,-23476.56
2022-12-26T12:47:53.813Z,-23477.69
2022-12-26T12:50:06.675Z,-23477.19
2022-12-26T12:52:20.819Z,-23479.75
2022-12-26T12:54:48.729Z,-23477.03
2022-12-26T12:56:59.209Z,-23478.47
2022-12-26T12:59:09.919Z,-23478.47
2022-12-26T13:01:19.431Z,-23479.09
2022-12-26T13:03:31.729Z,-23476.09
2022-12-26T13:05:45.379Z,-23478.47
2022-12-26T13:07:52.651Z,-23477.03
2022-12-26T13:09:59.492Z,-23476.41
2022-12-26T13:12:04.916Z,-23475.78
2022-12-26T13:14:14.269Z,-23476.09
2022-12-26T13:16:22.434Z,-23478.31
2022-12-26T13:18:31.043Z,-23474.34
2022-12-26T13:20:41.309Z,-23479.09
2022-12-26T13:23:05.264Z,-23472.91
2022-12-26T13:25:08.752Z,-23474.50
2022-12-26T13:27:17.273Z,-23475.47
2022-12-26T13:29:29.782Z,-23471.97
2022-12-26T13:31:38.965Z,-23471.97
2022-12-26T13:33:43.400Z,-23470.53
2022-12-26T13:35:57.324Z,-23470.88
2022-12-26T13:37:59.932Z,-23472.59
2022-12-26T13:40:04.509Z,-23469.44
2022-12-26T13:42:50.232Z,-23470.69
2022-12-26T13:44:53.887Z,-23471.81
2022-12-26T13:46:59.820Z,-23470.06
2022-12-26T13:49:02.836Z,-23469.13
2022-12-26T13:51:06.697Z,-23472.59
2022-12-26T13:53:29.840Z,-23471.03
2022-12-26T13:55:43.858Z,-23473.72
2022-12-26T13:57:47.424Z,-23471.03
2022-12-26T14:00:04.073Z,-23473.56
2022-12-26T14:03:16.729Z,-23472.75
2022-12-26T14:05:19.736Z,-23474.50
2022-12-26T14:07:31.172Z,-23474.19
2022-12-26T14:09:51.019Z,-23474.19
2022-12-26T14:12:08.406Z,-23471.66
2022-12-26T14:14:24.064Z,-23473.09
2022-12-26T14:16:35.018Z,-23473.25
2022-12-26T14:18:49.059Z,-23474.19
2022-12-26T14:20:58.621Z,-23472.75
2022-12-26T14:23:18.767Z,-23472.59
2022-12-26T14:25:26.483Z,-23474.19
2022-12-26T14:27:38.707Z,-23473.88
2022-12-26T14:29:49.592Z,-23474.03
2022-12-26T14:32:13.760Z,-23472.75
2022-12-26T14:34:28.766Z,-23472.28
2022-12-26T14:36:41.595Z,-23472.91
2022-12-26T14:38:51.276Z,-23471.03
2022-12-26T14:41:06.692Z,-23473.25
2022-12-26T14:43:26.286Z,-23469.44
2022-12-26T14:45:44.734Z,-23471.34
2022-12-26T14:47:49.725Z,-23472.59
2022-12-26T14:49:54.250Z,-23470.22
2022-12-26T14:52:37.554Z,-23470.69
2022-12-26T14:54:50.820Z,-23471.03
2022-12-26T14:56:54.701Z,-23471.34
2022-12-26T14:59:25.902Z,-23471.03
2022-12-26T15:01:49.307Z,-23470.22
2022-12-26T15:03:59.881Z,-23470.69
2022-12-26T15:06:43.015Z,-23468.63
2022-12-26T15:09:04.385Z,-23469.75
2022-12-26T15:11:24.628Z,-23468.81
2022-12-26T15:13:43.971Z,-23467.22
2022-12-26T15:16:03.676Z,-23470.53
2022-12-26T15:18:32.865Z,-23469.13
2022-12-26T15:21:02.439Z,-23467.22
2022-12-26T15:23:44.150Z,-23471.66
2022-12-26T15:26:06.420Z,-23466.25
2022-12-26T15:28:53.030Z,-23469.44
2022-12-26T15:31:15.916Z,-23465.63
2022-12-26T15:33:27.011Z,-23467.22
2022-12-26T15:35:35.584Z,-23467.84
2022-12-26T15:38:00.622Z,-23465.16
2022-12-26T15:40:14.881Z,-23465.00
2022-12-26T15:42:33.969Z,-23465.16
2022-12-26T15:44:46.612Z,-23465.47
2022-12-26T15:46:53.485Z,-23463.41
2022-12-26T15:49:23.666Z,-23463.72
2022-12-26T15:51:38.145Z,-23467.22
2022-12-26T15:53:56.831Z,-23465.31
2022-12-26T15:56:22.379Z,-23467.53
2022-12-26T15:58:43.253Z,-23467.69
2022-12-26T16:00:51.101Z,-23467.84
2022-12-26T16:03:14.587Z,-23463.72
2022-12-26T16:05:32.370Z,-23463.56
2022-12-26T16:07:40.726Z,-23465.00
2022-12-26T16:09:45.531Z,-23464.84
2022-12-26T16:11:55.167Z,-23464.03
2022-12-26T16:14:00.998Z,-23463.41
2022-12-26T16:16:04.045Z,-23459.59
2022-12-26T16:18:16.900Z,-23458.50
2022-12-26T16:20:42.311Z,-23458.97
2022-12-26T16:22:44.803Z,-23458.03
2022-12-26T16:24:51.279Z,-23456.44
2022-12-26T16:26:55.903Z,-23454.22
2022-12-26T16:29:01.337Z,-23457.22
2022-12-26T16:31:05.732Z,-23455.16
2022-12-26T16:33:08.506Z,-23453.72
2022-12-26T16:35:20.185Z,-23454.06
2022-12-26T16:37:25.309Z,-23454.06
2022-12-26T16:39:27.939Z,-23453.25
2022-12-26T16:41:32.866Z,-23452.94
2022-12-26T16:43:36.998Z,-23455.16
2022-12-26T16:45:39.989Z,-23455.47
2022-12-26T16:47:44.287Z,-23456.44
2022-12-26T16:49:47.424Z,-23455.47
2022-12-26T16:51:52.515Z,-23454.69
2022-12-26T16:53:55.144Z,-23455.78
2022-12-26T16:56:00.844Z,-23453.91
2022-12-26T16:58:12.161Z,-23451.34
2022-12-26T17:00:19.972Z,-23451.19
2022-12-26T17:02:25.954Z,-23450.56
2022-12-26T17:04:30.796Z,-23447.53
2022-12-26T17:06:36.352Z,-23446.13
2022-12-26T17:08:43.458Z,-23446.28
2022-12-26T17:10:49.864Z,-23448.97
2022-12-26T17:12:53.571Z,-23447.53
2022-12-26T17:14:59.691Z,-23445.00
2022-12-26T17:17:06.413Z,-23444.84
2022-12-26T17:19:17.945Z,-23444.69
2022-12-26T17:21:24.118Z,-23443.41
2022-12-26T17:23:37.545Z,-23442.31
2022-12-26T17:25:40.894Z,-23445.66
2022-12-26T17:27:45.970Z,-23445.00
2022-12-26T17:29:55.284Z,-23445.97
2022-12-26T17:31:59.005Z,-23446.91
2022-12-26T17:34:07.569Z,-23444.06
2022-12-26T17:37:19.309Z,-23443.75
2022-12-26T17:38:38.744Z,-23443.09
2022-12-26T17:40:42.784Z,-23442.47
2022-12-26T17:42:48.210Z,-23442.78
2022-12-26T17:44:50.840Z,-23443.41
2022-12-26T17:46:53.443Z,-23444.38
2022-12-26T17:48:56.110Z,-23445.16
2022-12-26T17:51:01.459Z,-23448.81
2022-12-26T17:53:06.434Z,-23445.81
2022-12-26T17:55:16.174Z,-23447.72
2022-12-26T17:57:23.913Z,-23444.22
2022-12-26T17:59:26.504Z,-23442.78
2022-12-26T18:01:29.208Z,-23444.06
2022-12-26T18:03:31.898Z,-23446.59
2022-12-26T18:05:35.343Z,-23448.34
2022-12-26T18:07:40.036Z,-23437.06
2022-12-26T18:09:43.878Z,-23441.84
2022-12-26T18:11:46.514Z,-23443.25
2022-12-26T18:13:49.145Z,-23445.47
2022-12-26T18:15:52.652Z,-23445.66
2022-12-26T18:17:56.263Z,-23441.53
2022-12-26T18:20:00.477Z,-23443.41
2022-12-26T18:22:03.524Z,-23443.75
2022-12-26T18:24:08.532Z,-23440.25
2022-12-26T18:26:18.578Z,-23439.94
2022-12-26T18:28:21.164Z,-23437.53
2022-12-26T18:30:25.663Z,-23435.81
2022-12-26T18:32:29.851Z,-23434.84
2022-12-26T18:34:34.454Z,-23431.69
2022-12-26T18:36:41.107Z,-23431.69
2022-12-26T18:38:43.646Z,-23433.91
2022-12-26T18:40:50.062Z,-23432.94
2022-12-26T18:42:52.661Z,-23431.03
2022-12-26T18:44:55.464Z,-23429.94
2022-12-26T18:46:58.064Z,-23426.75
2022-12-26T18:49:00.695Z,-23423.09
2022-12-26T18:51:04.780Z,-23422.16
2022-12-26T18:53:07.358Z,-23419.59
2022-12-26T18:55:10.745Z,-23417.69
2022-12-26T18:57:18.512Z,-23418.66
2022-12-26T18:59:21.086Z,-23416.44
2022-12-26T19:01:23.891Z,-23416.44
2022-12-26T19:03:26.557Z,-23414.84
2022-12-26T19:05:31.616Z,-23413.88
2022-12-26T19:07:34.277Z,-23416.28
2022-12-26T19:09:37.243Z,-23413.72
2022-12-26T19:11:41.139Z,-23414.22
2022-12-26T19:13:45.689Z,-23413.88
2022-12-26T19:15:49.317Z,-23415.16
2022-12-26T19:17:51.908Z,-23415.31
2022-12-26T19:19:54.550Z,-23412.94
2022-12-26T19:21:57.440Z,-23412.94
2022-12-26T19:24:00.123Z,-23413.88
2022-12-26T19:26:09.369Z,-23410.56
2022-12-26T19:28:11.976Z,-23413.56
2022-12-26T19:30:17.119Z,-23411.97
2022-12-26T19:32:20.176Z,-23414.69
2022-12-26T19:34:23.276Z,-23414.84
2022-12-26T19:36:25.967Z,-23411.34
2022-12-26T19:38:28.625Z,-23411.19
2022-12-26T19:40:31.247Z,-23414.03
2022-12-26T19:42:37.226Z,-23412.31
2022-12-26T19:44:39.830Z,-23415.31
2022-12-26T19:46:43.847Z,-23413.09
2022-12-26T19:48:46.882Z,-23416.44
2022-12-26T19:50:49.486Z,-23415.16
2022-12-26T19:52:52.096Z,-23415.47
2022-12-26T19:54:54.685Z,-23415.16
2022-12-26T19:56:57.320Z,-23413.56
2022-12-26T19:59:00.503Z,-23413.72
2022-12-26T20:01:07.840Z,-23415.47
2022-12-26T20:03:12.034Z,-23418.66
2022-12-26T20:05:14.773Z,-23415.00
2022-12-26T20:07:17.368Z,-23414.22
2022-12-26T20:09:20.113Z,-23409.44
2022-12-26T20:11:25.022Z,-23412.47
2022-12-26T20:13:27.628Z,-23413.25
2022-12-26T20:15:30.698Z,-23412.94
2022-12-26T20:17:33.339Z,-23410.72
2022-12-26T20:19:37.900Z,-23411.66
2022-12-26T20:21:40.698Z,-23410.72
2022-12-26T20:23:43.771Z,-23409.44
2022-12-26T20:25:46.468Z,-23411.81
2022-12-26T20:27:49.121Z,-23409.44
2022-12-26T20:29:51.829Z,-23406.28
2022-12-26T20:31:55.323Z,-23405.63
2022-12-26T20:33:58.250Z,-23404.69
2022-12-26T20:36:07.826Z,-23405.94
2022-12-26T20:38:10.471Z,-23404.03
2022-12-26T20:40:13.277Z,-23404.34
2022-12-26T20:42:17.002Z,-23409.28
2022-12-26T20:44:19.858Z,-23412.63
2022-12-26T20:46:25.465Z,-23408.16
2022-12-26T20:48:28.203Z,-23410.41
2022-12-26T20:50:30.862Z,-23407.22
2022-12-26T20:52:34.941Z,-23403.56
2022-12-26T20:54:37.608Z,-23407.84
2022-12-26T20:56:40.647Z,-23408.50
2022-12-26T20:58:43.475Z,-23407.84
2022-12-26T21:00:47.258Z,-23408.66
2022-12-26T21:02:50.100Z,-23405.47
2022-12-26T21:04:53.751Z,-23403.09
2022-12-26T21:06:56.356Z,-23405.00
2022-12-26T21:09:00.456Z,-23404.03
2022-12-26T21:11:07.779Z,-23400.22
2022-12-26T21:13:10.412Z,-23403.09
2022-12-26T21:15:13.036Z,-23404.34
2022-12-26T21:17:18.715Z,-23403.09
2022-12-26T21:19:22.764Z,-23400.53
2022-12-26T21:21:27.195Z,-23399.91
2022-12-26T21:23:29.872Z,-23406.75
2022-12-26T21:25:34.510Z,-23399.59
2022-12-26T21:27:40.332Z,-23394.81
2022-12-26T21:29:45.449Z,-23398.00
2022-12-26T21:31:49.246Z,-23400.88
2022-12-26T21:33:52.134Z,-23399.91
2022-12-26T21:35:54.878Z,-23398.66
2022-12-26T21:37:56.523Z,-23395.78
2022-12-26T21:39:59.191Z,-23400.53
2022-12-26T21:42:04.652Z,-23401.81
2022-12-26T21:44:07.266Z,-23402.78
2022-12-26T21:46:12.455Z,-23397.38
2022-12-26T21:48:15.829Z,-23399.28
2022-12-26T21:50:18.685Z,-23399.75
2022-12-26T21:52:21.335Z,-23395.16
2022-12-26T21:54:48.342Z,-23395.47
2022-12-26T21:56:51.812Z,-23395.47
2022-12-26T21:59:13.402Z,-23391.66
2022-12-26T22:01:18.013Z,-23388.78
2022-12-26T22:03:38.391Z,-23384.50
2022-12-26T22:05:42.675Z,-23380.53
2022-12-26T22:07:45.542Z,-23380.38
2022-12-26T22:09:48.105Z,-23380.22
2022-12-26T22:12:08.529Z,-23378.13
2022-12-26T22:14:12.969Z,-23376.41
2022-12-26T22:16:16.153Z,-23378.63
2022-12-26T22:18:18.905Z,-23376.72
2022-12-26T22:20:21.553Z,-23377.19
2022-12-26T22:22:24.228Z,-23377.66
2022-12-26T22:24:26.880Z,-23375.13
2022-12-26T22:26:30.704Z,-23370.03
2022-12-26T22:28:33.673Z,-23369.72
2022-12-26T22:30:37.694Z,-23369.56
2022-12-26T22:32:40.334Z,-23367.66
2022-12-26T22:34:43.380Z,-23367.97
2022-12-26T22:36:46.008Z,-23368.75
2022-12-26T22:38:48.686Z,-23369.72
2022-12-26T22:40:55.866Z,-23367.81
2022-12-26T22:42:58.572Z,-23364.31
2022-12-26T22:45:01.231Z,-23363.19
2022-12-26T22:47:05.244Z,-23365.44
2022-12-26T22:49:07.904Z,-23365.44
2022-12-26T22:51:17.108Z,-23368.91
2022-12-26T22:53:19.883Z,-23368.75
2022-12-26T22:55:22.480Z,-23373.06
2022-12-26T22:57:25.177Z,-23369.06
2022-12-26T23:00:06.575Z,-23367.66
2022-12-26T23:01:50.423Z,-23368.59
2022-12-26T23:03:54.435Z,-23366.69
2022-12-26T23:05:57.729Z,-23367.00
2022-12-26T23:08:00.834Z,-23363.66
2022-12-26T23:10:04.581Z,-23362.41
2022-12-26T23:12:25.980Z,-23359.06
2022-12-26T23:14:28.789Z,-23357.94
2022-12-26T23:16:35.320Z,-23359.06
2022-12-26T23:19:01.924Z,-23360.50
2022-12-26T23:21:27.497Z,-23356.03
2022-12-26T23:23:30.609Z,-23353.19
2022-12-26T23:25:33.236Z,-23352.69
2022-12-26T23:27:53.529Z,-23355.09
2022-12-26T23:30:14.050Z,-23347.75
2022-12-26T23:32:16.669Z,-23348.56
2022-12-26T23:34:19.583Z,-23345.84
2022-12-26T23:36:23.644Z,-23347.75
2022-12-26T23:38:26.400Z,-23349.03
2022-12-26T23:40:29.067Z,-23346.16
2022-12-26T23:42:31.946Z,-23348.22
2022-12-26T23:44:34.646Z,-23345.84
2022-12-26T23:46:37.817Z,-23348.09
2022-12-26T23:48:40.719Z,-23350.94
2022-12-26T23:50:43.565Z,-23348.72
2022-12-26T23:52:47.826Z,-23345.84
2022-12-26T23:54:50.496Z,-23343.00
2022-12-26T23:56:53.175Z,-23345.53
2022-12-26T23:58:56.017Z,-23341.41
